createdAt,value
2023-01-12T00:01:55.214Z,81.30
2023-01-12T00:04:22.004Z,81.30
2023-01-12T00:06:48.899Z,80.60
2023-01-12T00:09:15.703Z,81.20
2023-01-12T00:11:42.468Z,82.00
2023-01-12T00:14:09.399Z,81.70
2023-01-12T00:16:38.105Z,81.80
2023-01-12T00:19:21.780Z,82.20
2023-01-12T00:21:49.849Z,82.10
2023-01-12T00:24:17.964Z,82.50
2023-01-12T00:26:44.747Z,81.80
2023-01-12T00:29:11.511Z,82.10
2023-01-12T00:31:38.290Z,81.90
2023-01-12T00:34:05.045Z,81.30
2023-01-12T00:36:31.756Z,81.70
2023-01-12T00:38:58.599Z,81.80
2023-01-12T00:41:43.765Z,82.20
2023-01-12T00:44:28.909Z,82.90
2023-01-12T00:46:55.672Z,83.10
2023-01-12T00:49:22.460Z,83.20
2023-01-12T00:51:49.183Z,82.60
2023-01-12T00:54:15.948Z,82.70
2023-01-12T00:56:42.898Z,82.30
2023-01-12T00:59:09.640Z,82.90
2023-01-12T01:01:36.499Z,82.90
2023-01-12T01:04:03.410Z,83.10
2023-01-12T01:06:30.176Z,83.90
2023-01-12T01:08:56.936Z,84.90
2023-01-12T01:11:23.781Z,85.40
2023-01-12T01:13:50.567Z,89.10
2023-01-12T01:16:18.013Z,92.90
2023-01-12T01:18:44.814Z,84.70
2023-01-12T01:23:40.755Z,92.90
2023-01-12T01:26:08.718Z,83.20
2023-01-12T01:28:35.650Z,84.10
2023-01-12T01:31:10.180Z,85.60
2023-01-12T01:36:04.989Z,92.20
2023-01-12T01:38:31.852Z,92.70
2023-01-12T01:40:58.938Z,84.70
2023-01-12T01:43:27.239Z,92.20
2023-01-12T01:50:58.684Z,92.60
2023-01-12T01:53:27.172Z,83.40
2023-01-12T01:55:56.782Z,83.70
2023-01-12T01:58:26.887Z,85.40
2023-01-12T02:00:54.197Z,92.50
2023-01-12T02:03:21.094Z,84.90
2023-01-12T02:05:49.038Z,87.90
2023-01-12T02:08:23.871Z,92.50
2023-01-12T02:13:37.787Z,92.30
2023-01-12T02:18:50.801Z,92.10
2023-01-12T02:21:25.774Z,91.60
2023-01-12T02:26:40.459Z,91.90
2023-01-12T02:32:00.147Z,90.50
2023-01-12T12:14:51.398Z,91.40
2023-01-12T12:17:21.350Z,75.40
2023-01-12T12:20:06.442Z,74.50
2023-01-12T12:22:39.194Z,73.80
2023-01-12T12:25:12.320Z,74.10
2023-01-12T12:27:51.544Z,74.00
2023-01-12T12:30:33.073Z,73.50
2023-01-12T12:33:02.846Z,72.40
2023-01-12T12:35:35.365Z,71.70
2023-01-12T12:38:02.079Z,71.40
2023-01-12T12:41:00.318Z,71.30
2023-01-12T12:43:49.659Z,70.90
2023-01-12T12:46:45.852Z,70.40
2023-01-12T12:49:18.018Z,70.20
2023-01-12T12:51:45.508Z,69.60
2023-01-12T12:54:17.306Z,70.10
2023-01-12T12:56:44.692Z,69.70
2023-01-12T12:59:30.609Z,69.80
2023-01-12T13:01:58.541Z,69.70
2023-01-12T13:04:43.867Z,69.40
2023-01-12T13:07:14.942Z,69.80
2023-01-12T13:09:42.455Z,69.60
2023-01-12T13:12:19.039Z,69.30
2023-01-12T13:15:06.004Z,69.50
2023-01-12T13:17:32.759Z,69.20
2023-01-12T13:20:08.499Z,69.50
2023-01-12T13:23:04.762Z,69.50
2023-01-12T13:25:31.497Z,69.50
2023-01-12T13:28:01.138Z,69.70
2023-01-12T13:30:31.171Z,69.70
2023-01-12T13:33:16.807Z,69.80
2023-01-12T13:35:49.355Z,69.30
2023-01-12T13:38:21.309Z,69.60
2023-01-12T13:40:55.592Z,70.00
2023-01-12T13:43:29.136Z,69.60
2023-01-12T13:45:58.365Z,69.70
2023-01-12T13:48:26.125Z,69.60
2023-01-12T13:50:55.770Z,69.70
2023-01-12T13:53:28.600Z,69.70
2023-01-12T13:55:56.792Z,69.50
2023-01-12T13:58:23.745Z,69.30
2023-01-12T14:01:13.869Z,69.50
2023-01-12T14:03:40.578Z,69.90
2023-01-12T14:06:24.266Z,70.00
2023-01-12T14:08:59.910Z,69.90
2023-01-12T14:11:38.646Z,69.90
2023-01-12T14:15:02.597Z,70.00
2023-01-12T14:17:48.731Z,69.90
2023-01-12T14:20:16.784Z,69.70
2023-01-12T14:22:43.782Z,69.40
2023-01-12T14:25:18.830Z,69.40
2023-01-12T14:28:03.831Z,70.00
2023-01-12T14:30:30.817Z,69.90
2023-01-12T14:32:57.753Z,70.20
2023-01-12T14:35:25.647Z,70.20
2023-01-12T14:37:56.951Z,70.10
2023-01-12T14:40:27.921Z,69.80
2023-01-12T14:43:13.705Z,70.10
2023-01-12T14:46:15.449Z,69.70
2023-01-12T14:48:43.747Z,69.80
2023-01-12T14:51:10.533Z,69.80
2023-01-12T14:53:41.575Z,69.90
2023-01-12T14:56:27.255Z,69.80
2023-01-12T14:58:54.220Z,70.10
2023-01-12T15:01:34.632Z,70.40
2023-01-12T15:04:01.888Z,69.60
2023-01-12T15:06:28.743Z,69.90
2023-01-12T15:09:00.600Z,70.10
2023-01-12T15:11:37.493Z,70.20
2023-01-12T15:14:05.688Z,70.10
2023-01-12T15:16:50.918Z,70.20
2023-01-12T15:19:36.104Z,70.20
2023-01-12T15:22:21.388Z,70.10
2023-01-12T15:25:07.224Z,70.30
2023-01-12T15:27:33.998Z,70.50
2023-01-12T15:30:00.813Z,70.10
2023-01-12T15:32:47.403Z,70.20
2023-01-12T15:35:16.424Z,69.90
2023-01-12T15:37:43.224Z,69.60
2023-01-12T15:40:12.741Z,69.80
2023-01-12T15:42:39.471Z,69.90
2023-01-12T15:45:15.398Z,69.80
2023-01-12T15:47:42.111Z,70.00
2023-01-12T15:50:09.035Z,69.90
2023-01-12T15:52:35.946Z,70.30
2023-01-12T15:55:02.752Z,70.00
2023-01-12T15:57:29.547Z,69.90
2023-01-12T15:59:56.360Z,69.80
2023-01-12T16:02:36.371Z,69.70
2023-01-12T16:05:03.845Z,70.00
2023-01-12T16:07:30.774Z,70.00
2023-01-12T16:09:57.943Z,70.10
2023-01-12T16:12:25.068Z,70.00
2023-01-12T16:14:52.423Z,69.80
2023-01-12T16:17:19.114Z,69.90
2023-01-12T16:19:45.864Z,70.20
2023-01-12T16:22:15.394Z,69.70
2023-01-12T16:24:43.992Z,69.70
2023-01-12T16:27:11.254Z,69.60
2023-01-12T16:29:38.012Z,69.90
2023-01-12T16:32:04.863Z,69.70
2023-01-12T16:34:32.227Z,69.50
2023-01-12T16:37:00.646Z,69.10
2023-01-12T16:39:27.993Z,68.70
2023-01-12T16:42:00.337Z,68.30
2023-01-12T16:44:27.582Z,67.90
2023-01-12T16:46:54.328Z,67.90
2023-01-12T16:49:21.528Z,67.50
2023-01-12T16:51:48.269Z,67.60
2023-01-12T16:54:15.024Z,67.60
2023-01-12T16:56:42.724Z,67.20
2023-01-12T16:59:09.524Z,67.30
2023-01-12T17:01:36.398Z,67.50
2023-01-12T17:04:03.837Z,67.20
2023-01-12T17:06:30.693Z,67.50
2023-01-12T17:09:00.448Z,67.60
2023-01-12T17:11:28.100Z,67.50
2023-01-12T17:13:56.830Z,67.00
2023-01-12T17:16:24.979Z,67.30
2023-01-12T17:18:56.575Z,67.50
2023-01-12T17:21:24.651Z,67.60
2023-01-12T17:23:52.408Z,67.00
2023-01-12T17:26:19.572Z,67.40
2023-01-12T17:28:50.395Z,67.40
2023-01-12T17:31:18.367Z,67.40
2023-01-12T17:33:45.213Z,67.20
2023-01-12T17:36:12.857Z,67.30
2023-01-12T17:38:40.232Z,67.10
2023-01-12T17:41:08.037Z,67.40
2023-01-12T17:43:37.532Z,67.20
2023-01-12T17:46:04.754Z,67.20
2023-01-12T17:48:31.644Z,67.30
2023-01-12T17:50:58.369Z,67.10
2023-01-12T17:53:25.117Z,67.00
2023-01-12T17:55:53.203Z,67.10
2023-01-12T17:58:20.172Z,67.40
2023-01-12T18:00:47.042Z,67.70
2023-01-12T18:03:13.849Z,68.00
2023-01-12T18:05:42.476Z,67.60
2023-01-12T18:08:09.294Z,67.50
2023-01-12T18:10:36.200Z,67.60
2023-01-12T18:13:03.134Z,67.70
2023-01-12T18:15:29.896Z,67.70
2023-01-12T18:17:57.681Z,67.70
2023-01-12T18:20:24.485Z,68.00
2023-01-12T18:22:55.163Z,68.20
2023-01-12T18:25:21.953Z,67.90
2023-01-12T18:27:48.792Z,68.00
2023-01-12T18:30:15.579Z,67.70
2023-01-12T18:32:43.325Z,68.00
2023-01-12T18:35:10.447Z,67.80
2023-01-12T18:37:37.267Z,67.70
2023-01-12T18:40:04.170Z,67.80
2023-01-12T18:42:49.656Z,67.60
2023-01-12T18:45:19.907Z,67.70
2023-01-12T18:48:05.394Z,67.90
2023-01-12T18:50:51.116Z,67.90
2023-01-12T18:53:32.942Z,67.60
2023-01-12T18:56:03.914Z,67.80
2023-01-12T18:58:34.997Z,67.70
2023-01-12T19:01:13.749Z,68.20
2023-01-12T19:03:41.574Z,67.30
2023-01-12T19:06:31.250Z,68.30
2023-01-12T19:09:16.599Z,68.00
2023-01-12T19:11:43.417Z,67.70
2023-01-12T19:14:28.848Z,68.30
2023-01-12T19:17:14.308Z,68.30
2023-01-12T19:19:41.099Z,68.40
2023-01-12T19:22:26.477Z,68.20
2023-01-12T19:25:11.777Z,68.40
2023-01-12T19:27:57.433Z,68.10
2023-01-12T19:30:24.243Z,68.50
2023-01-12T19:32:51.676Z,68.50
2023-01-12T19:35:18.527Z,68.50
2023-01-12T19:37:48.862Z,68.40
2023-01-12T19:40:26.417Z,69.20
2023-01-12T19:43:11.772Z,69.20
2023-01-12T19:45:39.589Z,69.00
2023-01-12T19:48:07.433Z,69.10
2023-01-12T19:50:36.973Z,69.10
2023-01-12T19:53:04.707Z,69.20
2023-01-12T19:55:32.149Z,69.30
2023-01-12T19:57:59.336Z,69.20
2023-01-12T20:00:26.740Z,69.30
2023-01-12T20:02:53.802Z,69.50
2023-01-12T20:05:23.643Z,69.30
2023-01-12T20:07:51.672Z,69.90
2023-01-12T20:10:19.360Z,69.40
2023-01-12T20:12:46.285Z,69.60
2023-01-12T20:15:13.459Z,69.80
2023-01-12T20:17:40.256Z,69.70
2023-01-12T20:20:08.619Z,70.10
2023-01-12T20:22:35.979Z,69.70
2023-01-12T20:25:03.627Z,70.30
2023-01-12T20:27:32.754Z,69.90
2023-01-12T20:30:00.014Z,70.20
2023-01-12T20:32:31.537Z,70.50
2023-01-12T20:34:59.338Z,70.10
2023-01-12T20:37:26.152Z,70.10
2023-01-12T20:39:55.962Z,70.00
2023-01-12T20:42:22.998Z,71.00
2023-01-12T20:44:50.000Z,70.50
2023-01-12T20:47:19.156Z,71.20
2023-01-12T20:49:48.203Z,71.00
2023-01-12T20:52:14.936Z,71.50
2023-01-12T20:54:41.982Z,71.60
2023-01-12T20:57:10.348Z,72.70
2023-01-12T20:59:37.605Z,72.50
2023-01-12T21:02:04.518Z,71.70
2023-01-12T21:04:31.770Z,72.60
2023-01-12T21:06:58.760Z,72.60
2023-01-12T21:09:25.670Z,72.90
2023-01-12T21:11:52.494Z,72.50
2023-01-12T21:14:19.765Z,74.00
2023-01-12T21:16:46.647Z,74.00
2023-01-12T21:19:13.403Z,73.70
2023-01-12T21:21:40.158Z,74.80
2023-01-12T21:24:07.613Z,74.30
2023-01-12T21:26:34.383Z,75.30
2023-01-12T21:29:01.946Z,75.60
2023-01-12T21:31:28.909Z,77.30
2023-01-12T21:33:55.730Z,78.20
2023-01-12T21:36:23.468Z,79.00
2023-01-12T21:38:51.269Z,79.10
2023-01-12T21:41:18.560Z,81.00
2023-01-12T21:43:48.068Z,81.70
2023-01-12T21:46:14.834Z,81.90
2023-01-12T21:48:41.587Z,82.40
2023-01-12T21:51:11.887Z,82.20
2023-01-12T21:53:38.939Z,81.90
2023-01-12T21:56:06.052Z,82.60
2023-01-12T21:58:34.385Z,83.20
